C29

Middleton Municipal - Morey Field Airport

Middleton, Wisconsin, USA
METAR KC29 181335Z AUTO 36003KT 10SM OVC075 M08/M11 A3017 RMK AO1 T10801110
Observed Flight Rules
Jan-18 @ 13:35 UTC (27 minutes ago) Visual Flight Rules
Wind Visibility Clouds
360° at 3 knots 10 miles
  • Overcast at 7,500' AGL
Temperatures Readings
Current -8°C / 18°F
Dewpoint -11°C / 12°F
Humidity 79%
Altimeter 30.17" Hg
Pressure 1021.72 hPa
Elevation 283
METAR KC29 181335Z AUTO 36003KT 10SM OVC075 M08/M11 A3017 RMK AO1 T10801110
Observed Flight Rules
Jan-18 @ 13:35 UTC
(27 minutes ago)
VFR
Wind Visibility
360° at 3 knots 10 miles
Clouds
  • Overcast at 7,500' AGL
Temperature Dewpoint
-8°C / 18°F -11°C / 12°F
Humidity Altimeter Pressure
79% 30.17" Hg 1021.72 hPa